createdAt,value
2019-03-05T00:01:25.185Z,98527.74
2019-03-05T00:03:53.912Z,98531.80
2019-03-05T00:06:21.734Z,98539.69
2019-03-05T00:08:49.792Z,98539.14
2019-03-05T00:11:17.834Z,98536.70
2019-03-05T00:13:45.706Z,98564.56
2019-03-05T00:16:13.779Z,98544.09
2019-03-05T00:18:41.694Z,98540.95
2019-03-05T00:21:09.517Z,98541.39
2019-03-05T00:23:51.497Z,98558.13
2019-03-05T00:26:23.043Z,98543.64
2019-03-05T00:29:14.109Z,98566.80
2019-03-05T00:31:42.153Z,98556.70
2019-03-05T00:34:36.454Z,98559.00
2019-03-05T00:37:37.738Z,98566.27
2019-03-05T00:40:21.187Z,98557.30
2019-03-05T00:43:03.980Z,98562.67
2019-03-05T00:46:13.476Z,98569.11
2019-03-05T00:48:58.654Z,98567.61
2019-03-05T00:52:09.631Z,98585.10
2019-03-05T00:54:47.615Z,98579.78
2019-03-05T00:58:02.562Z,98593.72
2019-03-05T01:00:47.630Z,98586.33
2019-03-05T01:03:41.662Z,98609.84
2019-03-05T01:06:27.801Z,98607.41
2019-03-05T01:08:56.401Z,98616.31
2019-03-05T01:11:25.028Z,98620.59
2019-03-05T01:13:53.317Z,98623.73
2019-03-05T01:16:25.088Z,98628.67
2019-03-05T01:18:52.951Z,98633.95
2019-03-05T01:21:20.919Z,98643.67
2019-03-05T01:23:48.906Z,98631.97
2019-03-05T01:26:16.931Z,98650.42
2019-03-05T01:28:44.997Z,98656.69
2019-03-05T01:31:42.112Z,98652.06
2019-03-05T01:34:19.834Z,98657.34
2019-03-05T01:36:53.968Z,98654.28
2019-03-05T01:39:41.592Z,98658.38
2019-03-05T01:42:09.777Z,98658.02
2019-03-05T01:44:37.570Z,98656.06
2019-03-05T01:47:05.734Z,98658.05
2019-03-05T01:49:33.602Z,98661.98
2019-03-05T01:52:01.622Z,98664.50
2019-03-05T01:54:29.655Z,98663.50
2019-03-05T01:56:57.472Z,98671.23
2019-03-05T01:59:25.375Z,98660.69
2019-03-05T02:01:53.508Z,98666.61
2019-03-05T02:04:22.111Z,98667.95
2019-03-05T02:06:49.998Z,98665.30
2019-03-05T02:09:18.112Z,98668.78
2019-03-05T02:11:46.164Z,98679.14
2019-03-05T02:14:14.012Z,98689.01
2019-03-05T02:16:42.464Z,98677.16
2019-03-05T02:19:47.296Z,98690.83
2019-03-05T02:22:34.381Z,98691.00
2019-03-05T02:25:46.974Z,98695.27
2019-03-05T02:28:46.096Z,98694.13
2019-03-05T02:31:28.882Z,98687.71
2019-03-05T02:34:28.643Z,98700.23
2019-03-05T02:37:27.130Z,98705.48
2019-03-05T02:40:51.811Z,98707.97
2019-03-05T02:43:36.857Z,98706.80
2019-03-05T02:46:52.278Z,98704.83
2019-03-05T02:50:16.987Z,98709.44
2019-03-05T02:53:29.262Z,98707.13
2019-03-05T02:56:34.446Z,98705.16
2019-03-05T02:59:01.521Z,98708.13
2019-03-05T03:01:55.498Z,98707.80
2019-03-05T03:04:26.213Z,98708.78
2019-03-05T03:06:54.182Z,98712.58
2019-03-05T03:10:04.817Z,98717.52
2019-03-05T03:12:32.748Z,98718.83
2019-03-05T03:15:00.540Z,98728.20
2019-03-05T03:17:28.488Z,98731.34
2019-03-05T03:19:56.478Z,98732.14
2019-03-05T03:22:24.761Z,98721.46
2019-03-05T03:24:52.606Z,98730.50
2019-03-05T03:27:20.514Z,98729.03
2019-03-05T03:29:48.469Z,98728.20
2019-03-05T03:32:16.230Z,98728.53
2019-03-05T03:34:45.049Z,98725.56
2019-03-05T03:37:13.035Z,98731.68
2019-03-05T03:39:41.049Z,98725.57
2019-03-05T03:42:09.033Z,98727.21
2019-03-05T03:44:36.997Z,98728.71
2019-03-05T03:47:04.945Z,98737.27
2019-03-05T03:49:33.357Z,98743.02
2019-03-05T03:52:01.144Z,98741.89
2019-03-05T03:54:29.043Z,98736.95
2019-03-05T03:56:57.846Z,98738.09
2019-03-05T03:59:25.766Z,98727.88
2019-03-05T04:01:53.645Z,98725.91
2019-03-05T04:04:21.684Z,98725.40
2019-03-05T04:06:49.646Z,98735.78
2019-03-05T04:09:17.680Z,98732.16
2019-03-05T04:11:45.589Z,98740.38
2019-03-05T04:14:13.511Z,98728.86
2019-03-05T04:16:41.324Z,98731.83
2019-03-05T04:19:12.322Z,98721.95
2019-03-05T04:21:40.330Z,98723.27
2019-03-05T04:24:08.249Z,98729.02
2019-03-05T04:26:36.067Z,98734.45
2019-03-05T04:29:04.126Z,98727.53
2019-03-05T04:31:33.066Z,98726.21
2019-03-05T04:34:00.922Z,98724.38
2019-03-05T04:36:28.790Z,98719.63
2019-03-05T04:38:56.606Z,98722.05
2019-03-05T04:41:24.497Z,98717.30
2019-03-05T04:43:55.840Z,98721.23
2019-03-05T04:46:37.675Z,98717.61
2019-03-05T04:49:31.145Z,98714.33
2019-03-05T04:52:09.002Z,98717.74
2019-03-05T04:54:37.237Z,98723.31
2019-03-05T04:57:05.123Z,98724.30
2019-03-05T04:59:33.052Z,98726.44
2019-03-05T05:02:00.907Z,98736.63
2019-03-05T05:04:28.734Z,98728.08
2019-03-05T05:06:56.617Z,98725.46
2019-03-05T05:09:24.562Z,98718.50
2019-03-05T05:11:52.517Z,98729.06
2019-03-05T05:14:20.363Z,98722.43
2019-03-05T05:16:48.131Z,98725.78
2019-03-05T05:19:16.057Z,98725.16
2019-03-05T05:21:44.057Z,98725.83
2019-03-05T05:24:12.002Z,98726.14
2019-03-05T05:26:40.468Z,98725.64
2019-03-05T05:29:09.057Z,98736.64
2019-03-05T05:31:36.831Z,98726.81
2019-03-05T05:34:04.627Z,98728.57
2019-03-05T05:36:32.508Z,98732.96
2019-03-05T05:39:00.423Z,98739.59
2019-03-05T05:41:28.373Z,98732.62
2019-03-05T05:43:56.355Z,98735.87
2019-03-05T05:46:24.273Z,98747.42
2019-03-05T05:48:52.020Z,98738.03
2019-03-05T05:51:19.947Z,98747.91
2019-03-05T05:53:48.107Z,98746.59
2019-03-05T05:56:15.962Z,98742.78
2019-03-05T05:58:43.852Z,98735.75
2019-03-05T06:01:12.651Z,98737.07
2019-03-05T06:03:40.487Z,98735.13
2019-03-05T06:06:09.117Z,98732.95
2019-03-05T06:08:37.027Z,98738.88
2019-03-05T06:11:05.109Z,98739.28
2019-03-05T06:13:33.468Z,98734.81
2019-03-05T06:16:01.511Z,98736.34
2019-03-05T06:18:29.270Z,98750.14
2019-03-05T06:20:57.188Z,98732.39
2019-03-05T06:23:25.216Z,98743.91
2019-03-05T06:25:53.351Z,98737.16
2019-03-05T06:28:21.122Z,98740.64
2019-03-05T06:30:49.122Z,98745.88
2019-03-05T06:33:17.112Z,98743.56
2019-03-05T06:35:45.057Z,98755.06
2019-03-05T06:38:13.032Z,98755.08
2019-03-05T06:40:41.526Z,98768.28
2019-03-05T06:43:09.431Z,98757.91
2019-03-05T06:45:37.312Z,98754.97
2019-03-05T06:48:09.950Z,98753.00
2019-03-05T06:50:38.512Z,98759.10
2019-03-05T06:53:06.347Z,98755.48
2019-03-05T06:55:34.946Z,98758.14
2019-03-05T06:58:03.152Z,98760.77
2019-03-05T07:00:35.780Z,98764.55
2019-03-05T07:03:04.254Z,98764.41
2019-03-05T07:06:25.967Z,98772.47
2019-03-05T07:09:01.717Z,98765.08
2019-03-05T07:12:12.655Z,98770.85
2019-03-05T07:15:12.691Z,98769.03
2019-03-05T07:17:44.745Z,98779.89
2019-03-05T07:21:13.182Z,98786.99
2019-03-05T07:24:14.695Z,98787.98
2019-03-05T07:26:42.634Z,98782.85
2019-03-05T07:29:10.737Z,98803.59
2019-03-05T07:31:38.638Z,98802.63
2019-03-05T07:34:10.250Z,98791.92
2019-03-05T07:36:38.131Z,98789.77
2019-03-05T07:39:07.699Z,98809.19
2019-03-05T07:41:35.549Z,98795.67
2019-03-05T07:44:04.195Z,98803.74
2019-03-05T07:46:32.012Z,98796.32
2019-03-05T07:48:59.936Z,98809.78
2019-03-05T07:51:27.829Z,98806.45
2019-03-05T07:53:55.715Z,98814.81
2019-03-05T07:56:24.796Z,98811.68
2019-03-05T07:58:52.655Z,98817.92
2019-03-05T08:01:22.512Z,98821.38
2019-03-05T08:03:50.463Z,98817.77
2019-03-05T08:06:18.363Z,98835.73
2019-03-05T08:09:22.913Z,98827.16
2019-03-05T08:11:51.821Z,98836.72
2019-03-05T08:14:55.543Z,98833.93
2019-03-05T08:17:24.377Z,98833.13
2019-03-05T08:19:54.215Z,98826.87
2019-03-05T08:22:22.372Z,98841.33
2019-03-05T08:24:50.259Z,98853.70
2019-03-05T08:27:18.841Z,98861.80
2019-03-05T08:29:46.705Z,98876.33
2019-03-05T08:32:14.756Z,98861.31
2019-03-05T08:34:42.768Z,98870.06
2019-03-05T08:37:13.347Z,98867.06
2019-03-05T08:39:40.585Z,98868.53
2019-03-05T08:42:08.725Z,98874.33
2019-03-05T08:44:36.784Z,98870.02
2019-03-05T08:47:04.751Z,98878.72
2019-03-05T08:49:32.752Z,98885.66
2019-03-05T08:52:00.609Z,98882.66
2019-03-05T08:54:34.499Z,98899.51
2019-03-05T08:57:03.266Z,98876.81
2019-03-05T08:59:32.614Z,98875.17
2019-03-05T09:02:00.825Z,98899.91
2019-03-05T09:04:28.608Z,98911.41
2019-03-05T09:06:57.050Z,98912.38
2019-03-05T09:09:25.063Z,98894.52
2019-03-05T09:11:53.403Z,98907.72
2019-03-05T09:14:21.478Z,98906.88
2019-03-05T09:16:49.444Z,98918.20
2019-03-05T09:19:17.335Z,98902.34
2019-03-05T09:21:45.277Z,98904.53
2019-03-05T09:24:13.298Z,98907.62
2019-03-05T09:26:50.688Z,98915.52
2019-03-05T09:29:11.140Z,98915.11
2019-03-05T09:31:39.915Z,98899.92
2019-03-05T09:34:07.786Z,98918.59
2019-03-05T09:36:36.076Z,98922.83
2019-03-05T09:39:07.820Z,98917.92
2019-03-05T09:41:35.690Z,98920.89
2019-03-05T09:44:03.705Z,98920.02
2019-03-05T09:46:31.538Z,98927.66
2019-03-05T09:48:59.513Z,98930.47
2019-03-05T09:51:27.670Z,98923.83
2019-03-05T09:53:55.501Z,98932.44
2019-03-05T09:56:28.537Z,98926.31
2019-03-05T09:58:56.913Z,98918.67
2019-03-05T10:01:24.899Z,98927.28
2019-03-05T10:03:52.771Z,98929.58
2019-03-05T10:06:20.748Z,98925.13
2019-03-05T10:08:48.688Z,98914.83
2019-03-05T10:11:16.701Z,98946.09
2019-03-05T10:13:44.666Z,98941.13
2019-03-05T10:16:12.854Z,98941.61
2019-03-05T10:18:41.686Z,98943.13
2019-03-05T10:21:11.898Z,98951.48
2019-03-05T10:23:40.168Z,98952.52
2019-03-05T10:26:10.459Z,98952.78
2019-03-05T10:28:38.445Z,98963.89
2019-03-05T10:31:06.693Z,98962.57
2019-03-05T10:33:34.778Z,98977.90
2019-03-05T10:36:02.789Z,98964.22
2019-03-05T10:38:30.827Z,98967.70
2019-03-05T10:40:58.940Z,98970.48
2019-03-05T10:43:26.888Z,98957.42
2019-03-05T10:45:54.812Z,98976.21
2019-03-05T10:48:23.231Z,98960.34
2019-03-05T10:50:51.315Z,98976.99
2019-03-05T10:53:19.929Z,98977.48
2019-03-05T10:55:48.420Z,98980.55
2019-03-05T10:58:17.237Z,98977.83
2019-03-05T11:00:46.473Z,98967.20
2019-03-05T11:03:15.012Z,98963.39
2019-03-05T11:05:43.256Z,98985.36
2019-03-05T11:08:16.584Z,98982.50
2019-03-05T11:10:44.657Z,98971.97
2019-03-05T11:13:12.738Z,98981.80
2019-03-05T11:15:40.794Z,98987.48
2019-03-05T11:18:09.006Z,99001.98
2019-03-05T11:20:37.149Z,98980.55
2019-03-05T11:23:05.395Z,98977.91
2019-03-05T11:25:33.439Z,98976.66
2019-03-05T11:28:01.322Z,98976.16
2019-03-05T11:30:36.107Z,98978.24
2019-03-05T11:32:59.763Z,98950.01
2019-03-05T11:35:27.925Z,98972.70
2019-03-05T11:37:55.946Z,98973.95
2019-03-05T11:40:24.626Z,98980.69
2019-03-05T11:42:52.912Z,98977.72
2019-03-05T11:45:26.245Z,98977.21
2019-03-05T11:47:54.531Z,98990.67
2019-03-05T11:50:23.034Z,98967.56
2019-03-05T11:52:51.654Z,99004.50
2019-03-05T11:55:20.354Z,98995.91
2019-03-05T11:57:48.435Z,98989.65
2019-03-05T12:00:21.318Z,98987.87
2019-03-05T12:02:49.190Z,99010.55
2019-03-05T12:05:17.257Z,99009.30
2019-03-05T12:07:46.201Z,98990.27
2019-03-05T12:10:17.334Z,99018.56
2019-03-05T12:12:45.175Z,99020.72
2019-03-05T12:15:14.126Z,99009.98
2019-03-05T12:17:42.100Z,99011.34
2019-03-05T12:20:11.172Z,99020.90
2019-03-05T12:22:39.235Z,99017.30
2019-03-05T12:25:08.984Z,99012.62
2019-03-05T12:27:37.153Z,99014.15
2019-03-05T12:30:06.160Z,99010.63
2019-03-05T12:32:34.327Z,99001.38
2019-03-05T12:35:02.211Z,99009.20
2019-03-05T12:37:30.138Z,99011.48
2019-03-05T12:39:58.032Z,99004.46
2019-03-05T12:42:26.096Z,99000.33
2019-03-05T12:44:54.976Z,98999.50
2019-03-05T12:47:23.078Z,98994.79
2019-03-05T12:49:51.118Z,98988.08
2019-03-05T12:52:19.424Z,98992.38
2019-03-05T12:54:47.498Z,98995.66
2019-03-05T12:57:15.727Z,98984.16
2019-03-05T12:59:43.906Z,98976.00
2019-03-05T13:02:12.190Z,98984.98
2019-03-05T13:04:40.296Z,98993.50
2019-03-05T13:07:08.315Z,98978.16
2019-03-05T13:09:36.456Z,99022.75
2019-03-05T13:12:04.472Z,99012.97
2019-03-05T13:14:32.363Z,99005.63
2019-03-05T13:17:00.418Z,99014.65
2019-03-05T13:19:28.420Z,99040.34
2019-03-05T13:21:56.469Z,99039.02
2019-03-05T13:24:25.040Z,99043.22
2019-03-05T13:26:53.086Z,99029.73
2019-03-05T13:29:21.126Z,99039.22
2019-03-05T13:31:49.269Z,99024.39
2019-03-05T13:34:19.893Z,99034.44
2019-03-05T13:36:50.683Z,99021.10
2019-03-05T13:39:22.278Z,99010.28
2019-03-05T13:41:50.449Z,99014.94
2019-03-05T13:44:32.099Z,98996.66
2019-03-05T13:47:00.889Z,99004.28
2019-03-05T13:49:44.850Z,99009.78
2019-03-05T13:53:14.842Z,99016.00
2019-03-05T13:56:12.253Z,99015.64
2019-03-05T13:59:13.847Z,99020.39
2019-03-05T14:01:42.023Z,99011.30
2019-03-05T14:04:17.899Z,98992.09
2019-03-05T14:07:36.348Z,98993.66
2019-03-05T14:10:05.270Z,98995.95
2019-03-05T14:12:34.698Z,99002.34
2019-03-05T14:15:02.945Z,98996.23
2019-03-05T14:17:38.453Z,99008.33
2019-03-05T14:20:09.416Z,98998.31
2019-03-05T14:22:37.536Z,99006.66
2019-03-05T14:25:06.682Z,99014.73
2019-03-05T14:27:34.810Z,99013.88
2019-03-05T14:30:03.258Z,99010.48
2019-03-05T14:32:31.548Z,99016.21
2019-03-05T14:35:19.893Z,99012.01
2019-03-05T14:37:47.992Z,99020.73
2019-03-05T14:40:24.614Z,99023.68
2019-03-05T14:42:49.515Z,99037.66
2019-03-05T14:45:20.767Z,99043.84
2019-03-05T14:47:48.977Z,99051.61
2019-03-05T14:50:17.991Z,99060.41
2019-03-05T14:52:46.169Z,99082.50
2019-03-05T14:55:14.854Z,99101.84
2019-03-05T14:57:42.886Z,99099.21
2019-03-05T15:00:13.516Z,99115.03
2019-03-05T15:02:41.728Z,99114.33
2019-03-05T15:05:10.380Z,99121.30
2019-03-05T15:07:46.950Z,99111.91
2019-03-05T15:10:16.435Z,99122.14
2019-03-05T15:12:44.676Z,99132.35
2019-03-05T15:15:15.972Z,99138.59
2019-03-05T15:17:44.375Z,99144.01
2019-03-05T15:20:13.027Z,99152.75
2019-03-05T15:22:41.257Z,99145.14
2019-03-05T15:25:10.852Z,99153.72
2019-03-05T15:27:39.071Z,99161.45
2019-03-05T15:30:10.598Z,99159.02
2019-03-05T15:32:38.684Z,99163.91
2019-03-05T15:35:07.357Z,99161.21
2019-03-05T15:37:35.340Z,99163.37
2019-03-05T15:40:04.223Z,99166.40
2019-03-05T15:42:32.399Z,99160.41
2019-03-05T15:45:01.038Z,99161.02
2019-03-05T15:47:29.163Z,99174.70
2019-03-05T15:49:57.379Z,99169.59
2019-03-05T15:52:25.535Z,99178.64
2019-03-05T15:54:53.746Z,99182.45
2019-03-05T15:57:26.161Z,99178.62
2019-03-05T15:59:51.961Z,99180.88
2019-03-05T16:02:20.029Z,99191.17
2019-03-05T16:04:48.162Z,99179.60
2019-03-05T16:07:16.640Z,99191.27
2019-03-05T16:09:47.500Z,99185.77
2019-03-05T16:12:15.838Z,99190.72
2019-03-05T16:14:44.105Z,99189.59
2019-03-05T16:17:12.251Z,99188.75
2019-03-05T16:19:40.382Z,99188.00
2019-03-05T16:22:09.150Z,99177.63
2019-03-05T16:24:37.667Z,99183.68
2019-03-05T16:27:07.137Z,99183.20
2019-03-05T16:29:35.224Z,99188.50
2019-03-05T16:32:23.051Z,99188.00
2019-03-05T16:35:27.936Z,99182.70
2019-03-05T16:38:21.396Z,99196.65
2019-03-05T16:41:06.218Z,99191.95
2019-03-05T16:44:06.096Z,99192.87
2019-03-05T16:46:56.405Z,99205.12
2019-03-05T16:49:43.864Z,99205.63
2019-03-05T16:52:35.962Z,99205.52
2019-03-05T16:55:23.864Z,99210.78
2019-03-05T16:58:17.083Z,99207.17
2019-03-05T17:01:04.650Z,99220.84
2019-03-05T17:04:04.431Z,99212.95
2019-03-05T17:06:58.991Z,99223.56
2019-03-05T17:09:44.739Z,99225.02
2019-03-05T17:12:21.006Z,99236.22
2019-03-05T17:14:49.167Z,99240.16
2019-03-05T17:17:17.279Z,99244.92
2019-03-05T17:19:46.687Z,99247.51
2019-03-05T17:22:14.738Z,99262.44
2019-03-05T17:24:42.835Z,99262.14
2019-03-05T17:27:10.861Z,99274.18
2019-03-05T17:29:38.999Z,99280.30
2019-03-05T17:32:07.342Z,99283.44
2019-03-05T17:34:36.002Z,99290.44
2019-03-05T17:37:04.042Z,99287.75
2019-03-05T17:39:32.079Z,99287.91
2019-03-05T17:42:00.151Z,99291.84
2019-03-05T17:44:28.703Z,99298.20
2019-03-05T17:46:56.870Z,99294.30
2019-03-05T17:49:25.779Z,99301.85
2019-03-05T17:51:53.814Z,99305.06
2019-03-05T17:54:21.938Z,99311.81
2019-03-05T17:56:50.410Z,99320.09
2019-03-05T17:59:18.439Z,99324.43
2019-03-05T18:01:46.594Z,99320.26
2019-03-05T18:04:15.786Z,99319.91
2019-03-05T18:06:44.357Z,99321.57
2019-03-05T18:09:13.202Z,99325.00
2019-03-05T18:11:42.774Z,99324.55
2019-03-05T18:14:22.035Z,99321.24
2019-03-05T18:16:50.117Z,99319.02
2019-03-05T18:19:18.224Z,99316.16
2019-03-05T18:21:46.305Z,99312.21
2019-03-05T18:24:14.468Z,99316.20
2019-03-05T18:26:42.507Z,99318.16
2019-03-05T18:29:10.648Z,99320.03
2019-03-05T18:31:41.153Z,99320.03
2019-03-05T18:34:09.329Z,99317.91
2019-03-05T18:36:37.439Z,99329.24
2019-03-05T18:39:05.970Z,99319.70
2019-03-05T18:41:34.044Z,99329.13
2019-03-05T18:44:02.398Z,99316.78
2019-03-05T18:46:31.027Z,99320.20
2019-03-05T18:48:59.189Z,99326.05
2019-03-05T18:51:28.418Z,99328.16
2019-03-05T18:53:56.495Z,99331.36
2019-03-05T18:56:24.640Z,99343.30
2019-03-05T18:58:53.888Z,99345.87
2019-03-05T19:01:22.121Z,99351.28
2019-03-05T19:03:50.191Z,99356.67
2019-03-05T19:06:18.636Z,99359.23
2019-03-05T19:08:46.691Z,99359.58
2019-03-05T19:11:14.919Z,99355.70
2019-03-05T19:13:42.979Z,99364.15
2019-03-05T19:16:16.983Z,99375.75
2019-03-05T19:18:45.256Z,99375.51
2019-03-05T19:21:13.382Z,99385.27
2019-03-05T19:23:41.530Z,99380.95
2019-03-05T19:26:11.679Z,99384.08
2019-03-05T19:28:39.850Z,99379.80
2019-03-05T19:31:07.944Z,99389.84
2019-03-05T19:33:36.062Z,99386.70
2019-03-05T19:36:04.438Z,99391.14
2019-03-05T19:38:33.654Z,99401.93
2019-03-05T19:41:02.074Z,99403.24
2019-03-05T19:43:30.198Z,99404.21
2019-03-05T19:45:59.119Z,99402.62
2019-03-05T19:48:28.523Z,99408.72
2019-03-05T19:50:58.211Z,99420.45
2019-03-05T19:53:26.373Z,99415.29
2019-03-05T19:55:54.419Z,99421.23
2019-03-05T19:58:22.509Z,99417.41
2019-03-05T20:01:05.299Z,99426.89
2019-03-05T20:03:33.426Z,99430.83
2019-03-05T20:06:01.561Z,99433.47
2019-03-05T20:08:39.382Z,99430.00
2019-03-05T20:11:02.694Z,99440.58
2019-03-05T20:13:30.838Z,99435.53
2019-03-05T20:15:59.246Z,99447.09
2019-03-05T20:18:38.870Z,99450.58
2019-03-05T20:21:07.272Z,99460.13
2019-03-05T20:23:36.823Z,99467.80
2019-03-05T20:26:05.328Z,99465.39
2019-03-05T20:28:33.416Z,99470.38
2019-03-05T20:31:01.447Z,99477.02
2019-03-05T20:33:29.659Z,99476.75
2019-03-05T20:35:58.570Z,99481.59
2019-03-05T20:38:27.510Z,99487.00
2019-03-05T20:40:55.473Z,99484.77
2019-03-05T20:43:23.733Z,99497.91
2019-03-05T20:45:53.423Z,99501.23
2019-03-05T20:48:21.497Z,99507.09
2019-03-05T20:50:49.482Z,99507.59
2019-03-05T20:53:18.366Z,99513.09
2019-03-05T20:55:46.545Z,99510.23
2019-03-05T20:58:14.615Z,99520.52
2019-03-05T21:00:42.959Z,99523.14
2019-03-05T21:03:11.082Z,99525.07
2019-03-05T21:05:40.231Z,99532.84
2019-03-05T21:08:08.639Z,99534.69
2019-03-05T21:10:36.878Z,99542.15
2019-03-05T21:13:05.065Z,99541.53
2019-03-05T21:15:33.209Z,99548.83
2019-03-05T21:18:02.453Z,99549.79
2019-03-05T21:20:30.720Z,99551.87
2019-03-05T21:22:58.861Z,99551.82
2019-03-05T21:25:26.938Z,99553.95
2019-03-05T21:27:55.000Z,99561.30
2019-03-05T21:30:23.153Z,99560.45
2019-03-05T21:32:51.384Z,99570.27
2019-03-05T21:35:19.554Z,99572.20
2019-03-05T21:37:47.725Z,99579.97
2019-03-05T21:40:20.594Z,99585.34
2019-03-05T21:42:48.999Z,99597.33
2019-03-05T21:45:20.072Z,99587.86
2019-03-05T21:47:48.177Z,99606.53
2019-03-05T21:50:16.694Z,99616.34
2019-03-05T21:52:45.541Z,99627.75
2019-03-05T21:55:14.559Z,99625.27
2019-03-05T21:57:42.743Z,99637.19
2019-03-05T22:00:14.025Z,99643.80
2019-03-05T22:02:43.236Z,99648.44
2019-03-05T22:05:11.364Z,99656.55
2019-03-05T22:07:39.441Z,99659.38
2019-03-05T22:10:10.079Z,99655.94
2019-03-05T22:12:39.357Z,99641.83
2019-03-05T22:15:09.169Z,99648.32
2019-03-05T22:17:37.424Z,99651.37
2019-03-05T22:20:06.857Z,99661.46
2019-03-05T22:22:34.911Z,99668.23
2019-03-05T22:25:04.903Z,99664.78
2019-03-05T22:27:32.944Z,99671.83
2019-03-05T22:30:01.034Z,99669.46
2019-03-05T22:32:29.803Z,99677.70
2019-03-05T22:34:57.828Z,99682.41
2019-03-05T22:37:25.979Z,99684.42
2019-03-05T22:39:54.467Z,99685.42
2019-03-05T22:42:23.023Z,99680.08
2019-03-05T22:44:51.911Z,99686.30
2019-03-05T22:47:19.996Z,99689.33
2019-03-05T22:49:48.152Z,99684.53
2019-03-05T22:52:17.417Z,99684.45
2019-03-05T22:54:45.446Z,99690.76
2019-03-05T22:57:13.666Z,99692.42
2019-03-05T22:59:41.673Z,99691.88
2019-03-05T23:02:09.890Z,99695.94
2019-03-05T23:04:40.641Z,99694.19
2019-03-05T23:07:09.230Z,99703.70
2019-03-05T23:09:37.410Z,99694.45
2019-03-05T23:12:06.145Z,99706.16
2019-03-05T23:14:34.776Z,99702.84
2019-03-05T23:17:03.017Z,99711.45
2019-03-05T23:19:31.154Z,99712.30
2019-03-05T23:21:59.559Z,99701.20
2019-03-05T23:24:27.783Z,99717.41
2019-03-05T23:26:55.961Z,99721.08
2019-03-05T23:29:58.637Z,99724.55
2019-03-05T23:32:27.599Z,99734.10
2019-03-05T23:34:56.681Z,99735.68
2019-03-05T23:37:25.087Z,99738.48
2019-03-05T23:39:53.129Z,99736.94
2019-03-05T23:42:21.770Z,99746.22
2019-03-05T23:44:50.164Z,99744.55
2019-03-05T23:47:18.298Z,99749.20
2019-03-05T23:49:46.357Z,99749.55
2019-03-05T23:52:14.526Z,99746.66
2019-03-05T23:54:42.447Z,99759.27
2019-03-05T23:57:10.533Z,99761.70
2019-03-05T23:59:38.567Z,99767.31
